createdAt,value
2018-04-07T00:01:45.039Z,13.00
2018-04-07T00:04:14.171Z,12.96
2018-04-07T00:06:43.277Z,13.01
2018-04-07T00:09:12.405Z,12.96
2018-04-07T00:11:42.342Z,12.88
2018-04-07T00:14:11.449Z,13.04
2018-04-07T00:16:40.565Z,13.00
2018-04-07T00:19:09.677Z,12.91
2018-04-07T00:21:38.783Z,12.78
2018-04-07T00:24:07.934Z,12.78
2018-04-07T00:26:37.824Z,12.81
2018-04-07T00:29:06.946Z,12.71
2018-04-07T00:31:36.068Z,12.69
2018-04-07T00:34:05.183Z,12.61
2018-04-07T00:36:34.305Z,12.61
2018-04-07T00:39:04.197Z,12.67
2018-04-07T00:41:33.307Z,12.60
2018-04-07T00:44:02.412Z,12.48
2018-04-07T00:46:32.307Z,12.47
2018-04-07T00:49:01.406Z,12.52
2018-04-07T00:51:30.555Z,12.36
2018-04-07T00:53:59.633Z,12.33
2018-04-07T00:56:29.530Z,12.28
2018-04-07T00:58:58.643Z,12.37
2018-04-07T01:01:27.777Z,12.46
2018-04-07T01:03:56.886Z,12.28
2018-04-07T01:06:26.023Z,12.12
2018-04-07T01:08:55.891Z,12.09
2018-04-07T01:11:25.021Z,12.00
2018-04-07T01:13:54.886Z,11.98
2018-04-07T01:16:23.999Z,12.11
2018-04-07T01:18:53.125Z,12.12
2018-04-07T01:21:22.990Z,12.19
2018-04-07T01:23:52.110Z,12.20
2018-04-07T01:26:22.000Z,12.25
2018-04-07T01:28:51.116Z,12.13
2018-04-07T01:31:20.210Z,12.13
2018-04-07T01:33:49.334Z,11.99
2018-04-07T01:36:19.217Z,12.00
2018-04-07T01:38:48.766Z,11.89
2018-04-07T01:41:18.623Z,11.95
2018-04-07T01:43:48.742Z,11.88
2018-04-07T01:46:17.865Z,11.86
2018-04-07T01:48:46.975Z,11.77
2018-04-07T01:51:16.868Z,11.79
2018-04-07T01:53:45.987Z,11.75
2018-04-07T01:56:15.085Z,11.77
2018-04-07T01:58:44.969Z,11.74
2018-04-07T02:01:14.086Z,11.72
2018-04-07T02:03:43.187Z,11.77
2018-04-07T02:06:12.319Z,11.70
2018-04-07T02:08:41.429Z,11.70
2018-04-07T02:11:10.545Z,11.73
2018-04-07T02:13:39.657Z,11.81
2018-04-07T02:16:08.784Z,11.80
2018-04-07T02:18:37.879Z,11.74
2018-04-07T02:21:07.766Z,11.72
2018-04-07T02:23:36.878Z,11.80
2018-04-07T02:26:06.771Z,11.86
2018-04-07T02:28:36.633Z,11.75
2018-04-07T02:31:05.739Z,11.61
2018-04-07T02:33:34.887Z,11.38
2018-04-07T02:36:03.992Z,11.35
2018-04-07T02:38:33.106Z,11.24
2018-04-07T02:41:02.975Z,11.26
2018-04-07T02:43:32.087Z,11.32
2018-04-07T02:46:01.212Z,11.25
2018-04-07T02:48:31.091Z,11.35
2018-04-07T02:51:00.195Z,11.46
2018-04-07T02:53:29.309Z,11.51
2018-04-07T02:55:58.408Z,11.60
2018-04-07T02:58:28.293Z,11.59
2018-04-07T03:00:57.385Z,11.59
2018-04-07T03:03:26.491Z,11.60
2018-04-07T03:05:55.608Z,11.64
2018-04-07T03:08:25.498Z,11.68
2018-04-07T03:10:54.601Z,11.63
2018-04-07T03:13:23.742Z,11.61
2018-04-07T03:15:52.848Z,11.65
2018-04-07T03:18:21.949Z,11.62
2018-04-07T03:20:51.065Z,11.61
2018-04-07T03:23:20.222Z,11.55
2018-04-07T03:25:49.317Z,11.44
2018-04-07T03:28:19.185Z,11.36
2018-04-07T03:30:48.951Z,11.30
2018-04-07T03:33:18.838Z,11.26
2018-04-07T03:35:48.950Z,11.23
2018-04-07T03:38:18.059Z,11.27
2018-04-07T03:40:47.180Z,11.16
2018-04-07T03:43:16.283Z,11.15
2018-04-07T03:45:45.412Z,11.00
2018-04-07T03:48:14.494Z,10.97
2018-04-07T03:50:43.608Z,10.96
2018-04-07T03:53:12.724Z,11.06
2018-04-07T03:55:41.861Z,10.95
2018-04-07T03:58:10.958Z,10.95
2018-04-07T04:00:40.091Z,10.95
2018-04-07T04:03:09.223Z,11.13
2018-04-07T04:05:39.114Z,11.21
2018-04-07T04:08:08.207Z,11.14
2018-04-07T04:10:37.317Z,11.18
2018-04-07T04:13:07.208Z,11.16
2018-04-07T04:15:36.294Z,11.10
2018-04-07T04:18:05.419Z,10.93
2018-04-07T04:20:35.302Z,11.00
2018-04-07T04:23:04.408Z,10.91
2018-04-07T04:25:33.529Z,10.89
2018-04-07T04:28:02.661Z,10.95
2018-04-07T04:30:31.750Z,10.85
2018-04-07T04:33:00.878Z,10.82
2018-04-07T04:35:29.974Z,10.78
2018-04-07T04:37:59.098Z,10.71
2018-04-07T04:40:28.980Z,10.70
2018-04-07T04:42:58.853Z,10.76
2018-04-07T04:45:28.719Z,10.79
2018-04-07T04:47:57.822Z,10.74
2018-04-07T04:50:26.946Z,10.57
2018-04-07T04:52:56.065Z,10.38
2018-04-07T04:55:25.947Z,10.35
2018-04-07T04:57:55.048Z,10.38
2018-04-07T05:00:24.168Z,10.58
2018-04-07T05:02:54.065Z,10.67
2018-04-07T05:05:23.183Z,10.78
2018-04-07T05:07:53.040Z,10.86
2018-04-07T05:10:22.148Z,10.86
2018-04-07T05:12:51.258Z,10.91
2018-04-07T05:15:20.377Z,10.89
2018-04-07T05:17:49.471Z,10.91
2018-04-07T05:20:19.359Z,10.85
2018-04-07T05:22:49.208Z,10.87
2018-04-07T05:25:19.079Z,10.95
2018-04-07T05:27:49.186Z,10.90
2018-04-07T05:30:18.307Z,10.83
2018-04-07T05:32:47.424Z,10.69
2018-04-07T05:35:17.287Z,10.70
2018-04-07T05:37:46.410Z,10.73
2018-04-07T05:40:15.523Z,10.65
2018-04-07T05:42:44.641Z,10.62
2018-04-07T05:45:13.824Z,10.55
2018-04-07T05:47:43.723Z,10.65
2018-04-07T05:50:12.821Z,10.57
2018-04-07T05:52:41.958Z,10.51
2018-04-07T05:55:11.052Z,10.59
2018-04-07T05:57:40.176Z,10.57
2018-04-07T06:00:09.282Z,10.58
2018-04-07T06:02:38.433Z,10.70
2018-04-07T06:05:08.286Z,10.82
2018-04-07T06:07:37.396Z,10.97
2018-04-07T06:10:06.533Z,11.21
2018-04-07T06:12:36.390Z,11.24
2018-04-07T06:15:05.516Z,11.34
2018-04-07T06:17:34.644Z,11.30
2018-04-07T06:20:04.526Z,11.30
2018-04-07T06:22:33.629Z,11.36
2018-04-07T06:25:02.758Z,11.53
2018-04-07T06:27:31.856Z,11.58
2018-04-07T06:30:00.995Z,11.67
2018-04-07T06:32:30.118Z,11.60
2018-04-07T06:35:00.020Z,11.80
2018-04-07T06:40:09.306Z,11.89
2018-04-07T06:42:38.437Z,11.94
2018-04-07T06:45:08.363Z,11.95
2018-04-07T06:47:37.466Z,12.07
2018-04-07T06:50:07.390Z,12.12
2018-04-07T06:52:37.267Z,12.08
2018-04-07T06:55:06.445Z,12.15
2018-04-07T06:57:36.303Z,12.24
2018-04-07T07:00:06.224Z,12.24
2018-04-07T07:02:36.109Z,12.23
2018-04-07T07:05:05.243Z,12.31
2018-04-07T07:07:35.124Z,12.45
2018-04-07T07:10:04.264Z,12.53
2018-04-07T07:12:33.384Z,12.70
2018-04-07T07:15:02.510Z,12.66
2018-04-07T07:17:32.577Z,12.69
2018-04-07T07:20:01.699Z,12.76
2018-04-07T07:22:30.828Z,12.76
2018-04-07T07:24:59.947Z,12.77
2018-04-07T07:27:29.093Z,12.87
2018-04-07T07:29:58.213Z,13.01
2018-04-07T07:32:28.110Z,13.12
2018-04-07T07:34:57.233Z,13.13
2018-04-07T07:37:27.149Z,13.14
2018-04-07T07:39:57.598Z,13.16
2018-04-07T07:42:26.728Z,13.21
2018-04-07T07:44:55.841Z,13.25
2018-04-07T07:47:25.742Z,13.35
2018-04-07T07:49:54.875Z,13.44
2018-04-07T07:52:23.998Z,13.48
2018-04-07T07:54:53.124Z,13.50
2018-04-07T07:57:22.249Z,13.56
2018-04-07T07:59:51.398Z,13.63
2018-04-07T08:02:20.470Z,13.61
2018-04-07T08:04:49.608Z,13.65
2018-04-07T08:07:18.718Z,13.72
2018-04-07T08:09:49.864Z,13.79
2018-04-07T08:12:19.741Z,13.82
2018-04-07T08:14:50.289Z,13.95
2018-04-07T08:17:19.412Z,13.98
2018-04-07T08:19:49.480Z,14.11
2018-04-07T08:22:18.609Z,14.22
2018-04-07T08:24:49.762Z,14.28
2018-04-07T08:27:18.898Z,14.26
2018-04-07T08:29:48.029Z,14.29
2018-04-07T08:32:18.013Z,14.38
2018-04-07T08:34:47.076Z,14.43
2018-04-07T08:37:16.228Z,14.42
2018-04-07T08:39:45.326Z,14.37
2018-04-07T08:42:15.252Z,14.37
2018-04-07T08:44:45.116Z,14.41
2018-04-07T08:47:14.328Z,14.51
2018-04-07T08:49:43.481Z,14.60
2018-04-07T08:52:12.618Z,14.52
2018-04-07T08:54:41.741Z,14.51
2018-04-07T08:57:11.631Z,14.60
2018-04-07T08:59:40.777Z,14.61
2018-04-07T09:02:09.912Z,14.77
2018-04-07T09:04:39.011Z,14.86
2018-04-07T09:07:08.135Z,14.90
2018-04-07T09:09:37.263Z,14.98
2018-04-07T09:12:06.383Z,15.02
2018-04-07T09:14:35.527Z,15.19
2018-04-07T09:17:04.656Z,15.27
2018-04-07T09:19:33.783Z,15.28
2018-04-07T09:22:02.926Z,15.35
2018-04-07T09:24:32.052Z,15.42
2018-04-07T09:27:01.166Z,15.42
2018-04-07T09:29:30.316Z,15.60
2018-04-07T09:31:59.422Z,15.68
2018-04-07T09:34:28.555Z,15.81
2018-04-07T09:36:58.442Z,15.92
2018-04-07T09:39:27.570Z,16.06
2018-04-07T09:41:56.675Z,16.17
2018-04-07T09:44:25.803Z,16.14
2018-04-07T09:46:54.922Z,16.17
2018-04-07T09:49:24.063Z,16.23
2018-04-07T09:51:53.195Z,16.28
2018-04-07T09:54:22.309Z,16.42
2018-04-07T09:56:51.447Z,16.45
2018-04-07T09:59:20.575Z,16.55
2018-04-07T10:01:50.523Z,16.71
2018-04-07T10:04:20.427Z,16.82
2018-04-07T10:06:50.682Z,16.87
2018-04-07T10:09:20.554Z,16.91
2018-04-07T10:11:49.747Z,16.97
2018-04-07T10:14:18.860Z,17.08
2018-04-07T10:16:50.005Z,17.24
2018-04-07T10:19:19.876Z,17.22
2018-04-07T10:21:50.555Z,17.29
2018-04-07T10:24:20.460Z,17.38
2018-04-07T10:26:49.759Z,17.44
2018-04-07T10:29:18.878Z,17.49
2018-04-07T10:31:48.022Z,17.52
2018-04-07T10:34:17.161Z,17.63
2018-04-07T10:36:48.096Z,17.63
2018-04-07T10:39:18.020Z,17.66
2018-04-07T10:41:47.117Z,17.71
2018-04-07T10:44:16.254Z,17.82
2018-04-07T10:46:45.381Z,17.97
2018-04-07T10:49:14.545Z,18.10
2018-04-07T10:51:43.610Z,18.14
2018-04-07T10:54:12.766Z,18.20
2018-04-07T10:56:42.678Z,18.21
2018-04-07T10:59:11.790Z,18.25
2018-04-07T11:01:40.918Z,18.24
2018-04-07T11:04:10.080Z,18.33
2018-04-07T11:06:39.953Z,18.48
2018-04-07T11:09:09.096Z,18.57
2018-04-07T11:11:38.198Z,18.61
2018-04-07T11:14:07.346Z,18.68
2018-04-07T11:16:36.454Z,18.68
2018-04-07T11:19:05.623Z,18.77
2018-04-07T11:21:34.734Z,18.88
2018-04-07T11:24:04.643Z,19.00
2018-04-07T11:26:34.543Z,19.12
2018-04-07T11:29:03.679Z,19.18
2018-04-07T11:31:33.582Z,19.22
2018-04-07T11:34:03.480Z,19.26
2018-04-07T11:36:32.583Z,19.33
2018-04-07T11:39:01.718Z,19.37
2018-04-07T11:41:30.848Z,19.53
2018-04-07T11:43:59.985Z,19.65
2018-04-07T11:46:29.143Z,19.81
2018-04-07T11:48:58.256Z,19.94
2018-04-07T11:51:28.190Z,20.02
2018-04-07T11:53:57.322Z,20.12
2018-04-07T11:56:26.463Z,20.18
2018-04-07T11:58:56.386Z,20.25
2018-04-07T12:01:26.299Z,20.21
2018-04-07T12:03:55.418Z,20.34
2018-04-07T12:06:24.531Z,20.37
2018-04-07T12:08:53.675Z,20.47
2018-04-07T12:11:23.605Z,20.67
2018-04-07T12:13:53.505Z,20.85
2018-04-07T12:16:23.400Z,21.05
2018-04-07T12:18:52.588Z,21.11
2018-04-07T12:21:21.697Z,21.13
2018-04-07T12:23:50.825Z,21.28
2018-04-07T12:26:19.942Z,21.41
2018-04-07T12:28:50.033Z,21.46
2018-04-07T12:31:19.163Z,21.65
2018-04-07T12:33:48.298Z,21.83
2018-04-07T12:36:18.200Z,21.78
2018-04-07T12:38:48.111Z,21.83
2018-04-07T12:41:18.023Z,21.94
2018-04-07T12:43:47.899Z,22.07
2018-04-07T12:46:17.043Z,22.17
2018-04-07T12:48:46.160Z,22.28
2018-04-07T12:51:15.338Z,22.27
2018-04-07T12:53:44.418Z,22.35
2018-04-07T12:56:14.312Z,22.60
2018-04-07T12:58:43.461Z,22.76
2018-04-07T13:01:12.588Z,22.91
2018-04-07T13:03:41.713Z,23.06
2018-04-07T13:06:10.951Z,23.18
2018-04-07T13:08:40.100Z,23.04
2018-04-07T13:11:09.998Z,23.20
2018-04-07T13:13:39.120Z,23.37
2018-04-07T13:16:08.999Z,23.52
2018-04-07T13:18:38.135Z,23.61
2018-04-07T13:21:07.240Z,23.60
2018-04-07T13:23:36.378Z,23.64
2018-04-07T13:26:05.678Z,23.74
2018-04-07T13:28:34.799Z,23.82
2018-04-07T13:31:04.698Z,23.95
2018-04-07T13:33:38.527Z,24.00
2018-04-07T13:36:02.984Z,24.11
2018-04-07T13:38:32.083Z,24.21
2018-04-07T13:41:01.210Z,24.29
2018-04-07T13:43:30.380Z,24.19
2018-04-07T13:46:00.276Z,24.37
2018-04-07T13:48:29.408Z,24.56
2018-04-07T13:50:58.543Z,24.75
2018-04-07T13:53:27.654Z,24.92
2018-04-07T13:55:56.778Z,25.11
2018-04-07T13:58:26.686Z,25.21
2018-04-07T14:00:56.627Z,25.36
2018-04-07T14:03:25.734Z,25.40
2018-04-07T14:05:54.855Z,25.40
2018-04-07T14:08:23.979Z,25.54
2018-04-07T14:10:53.111Z,25.60
2018-04-07T14:13:22.243Z,25.73
2018-04-07T14:15:51.369Z,25.68
2018-04-07T14:18:21.266Z,25.70
2018-04-07T14:20:50.412Z,25.81
2018-04-07T14:23:19.577Z,26.08
2018-04-07T14:25:48.707Z,26.18
2018-04-07T14:28:17.848Z,26.30
2018-04-07T14:30:46.965Z,26.48
2018-04-07T14:33:16.867Z,26.67
2018-04-07T14:35:46.732Z,26.70
2018-04-07T14:38:16.632Z,26.65
2018-04-07T14:40:45.762Z,26.37
2018-04-07T14:43:14.891Z,26.54
2018-04-07T14:45:44.796Z,26.84
2018-04-07T14:48:14.678Z,27.12
2018-04-07T14:50:43.790Z,27.30
2018-04-07T14:53:13.688Z,27.48
2018-04-07T14:55:42.791Z,27.77
2018-04-07T14:58:12.687Z,28.44
2018-04-07T15:00:41.792Z,29.84
2018-04-07T15:03:10.943Z,31.99
2018-04-07T15:05:40.084Z,35.13
2018-04-07T15:08:09.982Z,37.69
2018-04-07T15:10:39.098Z,38.98
2018-04-07T15:13:08.220Z,40.28
2018-04-07T15:15:38.086Z,40.73
2018-04-07T15:18:07.207Z,41.46
2018-04-07T15:20:37.082Z,41.80
2018-04-07T15:23:06.226Z,41.73
2018-04-07T15:25:36.130Z,42.02
2018-04-07T15:28:06.063Z,42.57
2018-04-07T15:30:35.174Z,42.49
2018-04-07T15:33:04.316Z,43.14
2018-04-07T15:35:33.430Z,43.09
2018-04-07T15:38:03.293Z,43.21
2018-04-07T15:40:32.405Z,42.98
2018-04-07T15:43:01.531Z,42.35
2018-04-07T15:45:31.415Z,42.60
2018-04-07T15:48:00.514Z,42.87
2018-04-07T15:50:29.636Z,42.65
2018-04-07T15:52:59.494Z,42.64
2018-04-07T15:55:28.634Z,42.48
2018-04-07T15:57:58.504Z,41.61
2018-04-07T16:00:27.628Z,42.07
2018-04-07T16:02:56.750Z,41.92
2018-04-07T16:05:25.866Z,41.68
2018-04-07T16:07:54.954Z,41.90
2018-04-07T16:10:24.090Z,41.56
2018-04-07T16:12:53.201Z,41.72
2018-04-07T16:15:22.304Z,41.86
2018-04-07T16:17:51.440Z,41.65
2018-04-07T16:20:20.595Z,41.57
2018-04-07T16:22:51.394Z,41.18
2018-04-07T16:25:20.541Z,40.71
2018-04-07T16:27:51.422Z,40.84
2018-04-07T16:30:20.564Z,40.72
2018-04-07T16:32:50.642Z,40.38
2018-04-07T16:35:19.817Z,39.21
2018-04-07T16:37:48.910Z,38.56
2018-04-07T16:40:18.026Z,37.04
2018-04-07T16:42:47.137Z,34.40
2018-04-07T16:45:16.286Z,32.11
2018-04-07T16:47:45.402Z,30.70
2018-04-07T16:50:14.526Z,29.94
2018-04-07T16:52:44.423Z,29.30
2018-04-07T16:55:13.559Z,28.56
2018-04-07T16:57:42.651Z,27.92
2018-04-07T17:00:11.760Z,27.62
2018-04-07T17:02:40.894Z,27.58
2018-04-07T17:05:10.020Z,27.25
2018-04-07T17:07:39.898Z,26.81
2018-04-07T17:10:09.019Z,26.40
2018-04-07T17:12:38.128Z,26.07
2018-04-07T17:15:07.264Z,25.76
2018-04-07T17:17:36.371Z,25.57
2018-04-07T17:20:05.502Z,25.41
2018-04-07T17:22:35.389Z,25.17
2018-04-07T17:25:04.497Z,25.04
2018-04-07T17:27:34.396Z,24.87
2018-04-07T17:30:03.494Z,24.73
2018-04-07T17:32:33.400Z,24.58
2018-04-07T17:35:02.519Z,24.41
2018-04-07T17:37:33.163Z,24.26
2018-04-07T17:40:02.304Z,24.10
2018-04-07T17:42:32.209Z,24.03
2018-04-07T17:45:01.438Z,23.94
2018-04-07T17:47:30.548Z,23.80
2018-04-07T17:50:00.431Z,23.62
2018-04-07T17:52:29.561Z,23.47
2018-04-07T17:54:58.706Z,23.22
2018-04-07T17:57:27.840Z,22.99
2018-04-07T17:59:56.944Z,22.79
2018-04-07T18:02:26.845Z,22.56
2018-04-07T18:04:56.770Z,22.35
2018-04-07T18:07:25.858Z,22.20
2018-04-07T18:09:55.757Z,22.02
2018-04-07T18:12:24.867Z,21.93
2018-04-07T18:14:54.749Z,21.81
2018-04-07T18:17:23.875Z,21.67
2018-04-07T18:19:53.759Z,21.53
2018-04-07T18:22:22.889Z,21.40
2018-04-07T18:24:52.038Z,21.25
2018-04-07T18:27:21.189Z,21.14
2018-04-07T18:29:50.799Z,21.14
2018-04-07T18:32:19.903Z,21.13
2018-04-07T18:34:49.046Z,21.03
2018-04-07T18:37:18.154Z,20.97
2018-04-07T18:39:48.054Z,20.87
2018-04-07T18:42:17.935Z,20.80
2018-04-07T18:44:47.075Z,20.70
2018-04-07T18:47:16.965Z,20.59
2018-04-07T18:49:46.072Z,20.52
2018-04-07T18:52:15.202Z,20.43
2018-04-07T18:54:44.303Z,20.33
2018-04-07T18:57:13.432Z,20.20
2018-04-07T18:59:42.624Z,20.14
2018-04-07T19:02:11.771Z,20.08
2018-04-07T19:04:40.867Z,20.02
2018-04-07T19:07:10.004Z,19.92
2018-04-07T19:09:39.102Z,19.83
2018-04-07T19:12:08.238Z,19.77
2018-04-07T19:14:37.343Z,19.65
2018-04-07T19:17:06.475Z,19.56
2018-04-07T19:19:35.600Z,19.45
2018-04-07T19:22:05.501Z,19.38
2018-04-07T19:24:34.645Z,19.25
2018-04-07T19:27:03.763Z,19.22
2018-04-07T19:29:32.902Z,19.15
2018-04-07T19:32:03.061Z,19.16
2018-04-07T19:34:32.235Z,19.18
2018-04-07T19:37:01.360Z,19.14
2018-04-07T19:39:30.512Z,19.08
2018-04-07T19:42:00.406Z,19.02
2018-04-07T19:44:29.532Z,18.94
2018-04-07T19:46:58.645Z,18.89
2018-04-07T19:49:27.787Z,18.84
2018-04-07T19:51:56.893Z,18.84
2018-04-07T19:54:26.807Z,18.75
2018-04-07T19:56:56.687Z,18.71
2018-04-07T19:59:25.815Z,18.62
2018-04-07T20:01:56.819Z,18.60
2018-04-07T20:04:26.701Z,18.53
2018-04-07T20:06:55.831Z,18.43
2018-04-07T20:09:24.935Z,18.37
2018-04-07T20:11:54.075Z,18.33
2018-04-07T20:14:23.197Z,18.24
2018-04-07T20:16:52.339Z,18.20
2018-04-07T20:19:22.218Z,18.23
2018-04-07T20:21:52.120Z,18.16
2018-04-07T20:24:21.226Z,18.25
2018-04-07T20:26:51.803Z,18.37
2018-04-07T20:29:20.922Z,18.53
2018-04-07T20:31:50.932Z,18.67
2018-04-07T20:34:20.050Z,18.75
2018-04-07T20:36:49.181Z,18.83
2018-04-07T20:39:19.080Z,18.85
2018-04-07T20:41:48.187Z,18.83
2018-04-07T20:44:33.902Z,18.90
2018-04-07T20:47:03.096Z,18.89
2018-04-07T20:49:32.191Z,18.82
2018-04-07T20:52:01.318Z,18.82
2018-04-07T20:54:30.443Z,18.82
2018-04-07T20:56:59.574Z,18.85
2018-04-07T20:59:29.485Z,18.80
2018-04-07T21:01:58.604Z,18.74
2018-04-07T21:04:27.734Z,18.61
2018-04-07T21:06:56.843Z,18.59
2018-04-07T21:09:26.743Z,18.57
2018-04-07T21:11:55.875Z,18.53
2018-04-07T21:14:25.023Z,18.42
2018-04-07T21:16:54.148Z,18.33
2018-04-07T21:19:24.082Z,18.28
2018-04-07T21:21:53.203Z,18.26
2018-04-07T21:24:22.343Z,18.20
2018-04-07T21:26:52.219Z,18.05
2018-04-07T21:29:21.334Z,18.03
2018-04-07T21:31:51.010Z,17.89
2018-04-07T21:34:20.133Z,17.81
2018-04-07T21:36:49.258Z,17.67
2018-04-07T21:39:18.379Z,17.66
2018-04-07T21:41:48.292Z,17.65
2018-04-07T21:44:17.408Z,17.62
2018-04-07T21:46:46.573Z,17.53
2018-04-07T21:49:15.694Z,17.40
2018-04-07T21:51:44.830Z,17.48
2018-04-07T21:54:14.704Z,17.50
2018-04-07T21:56:43.855Z,17.47
2018-04-07T21:59:12.978Z,17.42
2018-04-07T22:01:42.114Z,17.33
2018-04-07T22:04:11.998Z,17.36
2018-04-07T22:06:41.110Z,17.43
2018-04-07T22:09:10.229Z,17.36
2018-04-07T22:11:39.373Z,17.34
2018-04-07T22:14:08.504Z,17.39
2018-04-07T22:16:37.609Z,17.29
2018-04-07T22:19:07.547Z,17.31
2018-04-07T22:21:36.654Z,17.42
2018-04-07T22:24:05.796Z,17.52
2018-04-07T22:26:35.748Z,17.55
2018-04-07T22:29:04.859Z,17.50
2018-04-07T22:31:33.978Z,17.49
2018-04-07T22:34:03.095Z,17.52
2018-04-07T22:36:32.233Z,17.55
2018-04-07T22:39:01.351Z,17.59
2018-04-07T22:41:30.485Z,17.58
2018-04-07T22:44:00.375Z,17.60
2018-04-07T22:46:29.527Z,17.51
2018-04-07T22:48:58.657Z,17.44
2018-04-07T22:51:28.558Z,17.50
2018-04-07T22:53:57.668Z,17.46
2018-04-07T22:56:26.803Z,17.41
2018-04-07T22:58:56.674Z,17.24
2018-04-07T23:01:25.824Z,17.37
2018-04-07T23:03:54.938Z,17.46
2018-04-07T23:06:24.085Z,17.52
2018-04-07T23:08:53.223Z,17.55
2018-04-07T23:11:22.346Z,17.55
2018-04-07T23:13:51.489Z,17.58
2018-04-07T23:16:20.607Z,17.55
2018-04-07T23:18:51.764Z,17.50
2018-04-07T23:21:20.876Z,17.49
2018-04-07T23:23:51.246Z,17.48
2018-04-07T23:26:20.369Z,17.45
2018-04-07T23:28:49.525Z,17.41
2018-04-07T23:31:19.421Z,17.34
2018-04-07T23:33:49.335Z,17.27
2018-04-07T23:36:19.224Z,17.30
2018-04-07T23:38:48.370Z,17.32
2018-04-07T23:41:17.509Z,17.32
2018-04-07T23:43:46.644Z,17.31
2018-04-07T23:46:16.521Z,17.32
2018-04-07T23:48:45.620Z,17.26
2018-04-07T23:51:14.757Z,17.26
2018-04-07T23:53:43.878Z,17.16
2018-04-07T23:56:13.018Z,17.05
2018-04-07T23:58:42.890Z,16.93
